Pearlington, Mississippi
Current Conditions -  °F | °C
As of 2:50 PM on Tuesday 21 Oct 2014 (Local Time) from KHSA Reporting Station
Clear Clear  
Wind Chill: 81°   Ceiling: Unl
Heat Index: 81°   Visibility: 10mi
Dew Point: 50°   Wind: 5mph
Humidity: 34%   Direction: 10°N
Pressure: 29.98"   Gusts: NA
Location:  30.25°N, 89.6°W
Report Text: KHSA 211950Z 01004KT 10SM CLR 27/10 A2998
Loading
Personal Weather Stations






























Interactive Weather Map
Tropical Storm Tracking
New forecast layout! Learn more

10-Day Weather Forecast

Advertisements
Track Severe Weather on mobile